createdAt,value
2022-10-15T00:03:08.411Z,100.00
2022-10-15T00:08:11.693Z,100.00
2022-10-15T00:13:13.440Z,100.00
2022-10-15T00:18:15.138Z,100.00
2022-10-15T00:23:16.809Z,100.00
2022-10-15T00:28:18.538Z,100.00
2022-10-15T00:33:22.557Z,100.00
2022-10-15T00:38:24.369Z,100.00
2022-10-15T00:43:47.705Z,100.00
2022-10-15T00:48:54.591Z,100.00
2022-10-15T00:53:56.714Z,100.00
2022-10-15T00:59:00.225Z,100.00
2022-10-15T01:04:04.577Z,100.00
2022-10-15T01:09:06.645Z,100.00
2022-10-15T01:14:16.407Z,100.00
2022-10-15T01:19:46.102Z,100.00
2022-10-15T01:25:10.870Z,100.00
2022-10-15T01:30:16.586Z,100.00
2022-10-15T01:35:21.129Z,100.00
2022-10-15T01:40:34.211Z,100.00
2022-10-15T01:45:41.788Z,100.00
2022-10-15T01:50:59.750Z,100.00
2022-10-15T01:56:09.754Z,100.00
2022-10-15T02:01:12.368Z,100.00
2022-10-15T02:06:23.906Z,100.00
2022-10-15T02:11:27.368Z,100.00
2022-10-15T02:16:43.978Z,100.00
2022-10-15T02:21:56.215Z,100.00
2022-10-15T02:27:01.035Z,100.00
2022-10-15T02:32:06.130Z,100.00
2022-10-15T02:37:08.889Z,100.00
2022-10-15T02:42:11.053Z,100.00
2022-10-15T02:47:13.027Z,100.00
2022-10-15T02:52:15.671Z,100.00
2022-10-15T02:57:17.588Z,100.00
2022-10-15T03:02:20.766Z,100.00
2022-10-15T03:07:23.323Z,100.00
2022-10-15T03:12:26.010Z,100.00
2022-10-15T03:17:28.331Z,100.00
2022-10-15T03:22:30.138Z,100.00
2022-10-15T03:27:33.391Z,100.00
2022-10-15T03:32:36.322Z,100.00
2022-10-15T03:37:40.320Z,100.00
2022-10-15T03:42:44.460Z,100.00
2022-10-15T03:47:46.933Z,100.00
2022-10-15T03:52:48.734Z,100.00
2022-10-15T03:57:50.558Z,100.00
2022-10-15T04:02:53.240Z,100.00
2022-10-15T04:08:00.502Z,100.00
2022-10-15T04:13:05.201Z,100.00
2022-10-15T04:18:08.865Z,100.00
2022-10-15T04:23:11.948Z,100.00
2022-10-15T04:28:17.386Z,100.00
2022-10-15T04:33:20.933Z,100.00
2022-10-15T04:38:28.565Z,100.00
2022-10-15T04:43:36.633Z,100.00
2022-10-15T04:48:43.316Z,100.00
2022-10-15T04:53:48.148Z,100.00
2022-10-15T04:58:51.007Z,100.00
2022-10-15T05:03:53.012Z,100.00
2022-10-15T05:08:54.833Z,100.00
2022-10-15T05:14:03.762Z,100.00
2022-10-15T05:19:08.334Z,100.00
2022-10-15T05:24:12.659Z,100.00
2022-10-15T05:29:29.216Z,100.00
2022-10-15T05:34:31.384Z,100.00
2022-10-15T05:39:37.240Z,100.00
2022-10-15T05:44:39.125Z,100.00
2022-10-15T05:49:40.888Z,100.00
2022-10-15T05:54:48.690Z,100.00
2022-10-15T05:59:50.615Z,100.00
2022-10-15T06:04:53.381Z,100.00
2022-10-15T06:09:54.987Z,100.00
2022-10-15T06:14:58.990Z,100.00
2022-10-15T06:20:00.678Z,100.00
2022-10-15T06:25:02.362Z,100.00
2022-10-15T06:30:04.783Z,100.00
2022-10-15T06:35:07.091Z,100.00
2022-10-15T06:40:11.300Z,100.00
2022-10-15T06:45:19.478Z,100.00
2022-10-15T06:50:23.457Z,100.00
2022-10-15T06:55:25.289Z,100.00
2022-10-15T07:00:27.892Z,100.00
2022-10-15T07:05:29.555Z,100.00
2022-10-15T07:10:31.250Z,100.00
2022-10-15T07:15:33.913Z,100.00
2022-10-15T07:20:35.594Z,100.00
2022-10-15T07:25:37.428Z,100.00
2022-10-15T07:30:39.186Z,100.00
2022-10-15T07:35:40.950Z,100.00
2022-10-15T07:40:42.615Z,100.00
2022-10-15T07:45:48.061Z,100.00
2022-10-15T07:51:01.860Z,100.00
2022-10-15T07:56:07.826Z,100.00
2022-10-15T08:01:11.058Z,100.00
2022-10-15T08:06:12.929Z,100.00
2022-10-15T08:11:16.451Z,100.00
2022-10-15T08:16:20.178Z,100.00
2022-10-15T08:21:32.414Z,100.00
2022-10-15T08:26:34.893Z,100.00
2022-10-15T08:31:36.706Z,100.00
2022-10-15T08:36:38.389Z,100.00
2022-10-15T08:41:40.315Z,100.00
2022-10-15T08:46:48.989Z,100.00
2022-10-15T08:51:55.190Z,100.00
2022-10-15T08:57:15.373Z,100.00
2022-10-15T09:02:25.632Z,100.00
2022-10-15T09:07:37.411Z,100.00
2022-10-15T09:13:00.598Z,100.00
2022-10-15T09:18:02.455Z,100.00
2022-10-15T09:23:17.172Z,100.00
2022-10-15T09:28:25.434Z,100.00
2022-10-15T09:33:45.223Z,100.00
2022-10-15T09:39:09.865Z,100.00
2022-10-15T09:44:15.239Z,100.00
2022-10-15T09:49:26.344Z,100.00
2022-10-15T09:54:38.264Z,100.00
2022-10-15T09:59:52.922Z,100.00
2022-10-15T10:04:55.298Z,98.81
2022-10-15T10:10:01.954Z,100.00
2022-10-15T10:15:22.620Z,98.29
2022-10-15T10:20:32.291Z,96.09
2022-10-15T10:25:42.487Z,94.63
2022-10-15T10:30:56.119Z,93.44
2022-10-15T10:35:59.674Z,93.69
2022-10-15T10:41:08.565Z,93.65
2022-10-15T10:46:22.701Z,92.99
2022-10-15T10:51:27.680Z,94.09
2022-10-15T10:56:42.576Z,92.41
2022-10-15T11:01:45.140Z,91.65
2022-10-15T11:07:00.707Z,92.95
2022-10-15T11:12:08.299Z,92.65
2022-10-15T11:17:36.471Z,92.97
2022-10-15T11:23:02.091Z,93.96
2022-10-15T11:28:15.624Z,91.76
2022-10-15T11:33:35.150Z,93.74
2022-10-15T11:38:53.590Z,93.36
2022-10-15T11:44:28.784Z,93.81
2022-10-15T11:49:56.882Z,94.33
2022-10-15T11:55:13.867Z,96.08
2022-10-15T12:00:31.288Z,97.70
2022-10-15T12:05:41.902Z,98.47
2022-10-15T12:10:55.126Z,100.00
2022-10-15T12:16:15.397Z,100.00
2022-10-15T12:21:42.834Z,100.00
2022-10-15T12:26:44.571Z,98.54
2022-10-15T12:31:56.396Z,96.99
2022-10-15T12:37:06.505Z,90.91
2022-10-15T12:42:23.606Z,88.11
2022-10-15T12:47:51.423Z,83.05
2022-10-15T12:53:22.923Z,82.33
2022-10-15T12:58:38.705Z,82.53
2022-10-15T13:03:50.062Z,80.03
2022-10-15T13:08:56.967Z,79.10
2022-10-15T13:14:15.256Z,79.30
2022-10-15T13:19:23.786Z,78.38
2022-10-15T13:24:30.567Z,77.55
2022-10-15T13:29:32.321Z,78.27
2022-10-15T13:34:36.564Z,78.13
2022-10-15T13:39:41.754Z,79.50
2022-10-15T13:44:56.698Z,79.52
2022-10-15T13:50:21.896Z,77.48
2022-10-15T13:55:29.760Z,76.80
2022-10-15T14:00:34.798Z,74.89
2022-10-15T14:05:36.809Z,75.75
2022-10-15T14:10:38.474Z,76.28
2022-10-15T14:15:46.413Z,75.25
2022-10-15T14:20:49.264Z,75.98
2022-10-15T14:25:56.766Z,72.98
2022-10-15T14:30:58.993Z,70.69
2022-10-15T14:36:23.198Z,70.22
2022-10-15T14:41:30.489Z,69.12
2022-10-15T14:46:51.134Z,69.28
2022-10-15T14:52:11.770Z,69.44
2022-10-15T14:57:24.539Z,69.24
2022-10-15T15:02:28.722Z,70.15
2022-10-15T15:07:30.601Z,71.11
2022-10-15T15:12:33.615Z,71.55
2022-10-15T15:17:35.602Z,71.16
2022-10-15T15:22:38.238Z,71.31
2022-10-15T15:27:40.015Z,72.20
2022-10-15T15:32:41.885Z,72.83
2022-10-15T15:37:43.617Z,73.67
2022-10-15T15:42:46.062Z,74.24
2022-10-15T15:47:48.088Z,74.86
2022-10-15T15:52:49.931Z,75.10
2022-10-15T15:57:51.608Z,76.05
2022-10-15T16:02:55.565Z,77.21
2022-10-15T16:07:59.753Z,77.65
2022-10-15T16:13:02.667Z,78.39
2022-10-15T16:18:04.801Z,78.92
2022-10-15T16:23:06.748Z,80.93
2022-10-15T16:28:08.802Z,81.76
2022-10-15T16:33:10.595Z,81.79
2022-10-15T16:38:12.219Z,81.22
2022-10-15T16:43:14.153Z,80.73
2022-10-15T16:48:15.837Z,80.58
2022-10-15T16:53:17.508Z,80.86
2022-10-15T16:58:19.242Z,80.83
2022-10-15T17:03:20.930Z,80.11
2022-10-15T17:08:23.913Z,80.08
2022-10-15T17:13:27.208Z,79.90
2022-10-15T17:18:28.948Z,79.73
2022-10-15T17:23:31.371Z,79.61
2022-10-15T17:28:33.538Z,80.06
2022-10-15T17:33:36.795Z,80.33
2022-10-15T17:38:38.792Z,80.71
2022-10-15T17:43:40.954Z,80.88
2022-10-15T17:48:43.511Z,81.22
2022-10-15T17:53:46.082Z,81.49
2022-10-15T17:58:48.612Z,81.73
2022-10-15T18:03:53.134Z,82.08
2022-10-15T18:08:55.779Z,82.13
2022-10-15T18:13:57.667Z,82.70
2022-10-15T18:18:59.474Z,83.21
2022-10-15T18:24:01.284Z,83.16
2022-10-15T18:29:02.897Z,83.23
2022-10-15T18:34:04.703Z,84.12
2022-10-15T18:39:06.399Z,84.41
2022-10-15T18:44:14.776Z,85.25
2022-10-15T18:49:19.179Z,86.15
2022-10-15T18:54:21.951Z,86.11
2022-10-15T18:59:23.611Z,85.53
2022-10-15T19:04:28.515Z,85.04
2022-10-15T19:09:31.449Z,84.37
2022-10-15T19:14:33.162Z,83.89
2022-10-15T19:19:35.364Z,83.78
2022-10-15T19:24:37.162Z,83.82
2022-10-15T19:29:39.574Z,84.03
2022-10-15T19:34:41.584Z,84.29
2022-10-15T19:39:48.082Z,84.25
2022-10-15T19:44:49.753Z,84.25
2022-10-15T19:49:52.220Z,84.38
2022-10-15T19:54:53.907Z,84.21
2022-10-15T19:59:55.580Z,84.35
2022-10-15T20:04:57.217Z,84.34
2022-10-15T20:09:58.866Z,84.21
2022-10-15T20:15:00.780Z,84.29
2022-10-15T20:20:02.418Z,84.13
2022-10-15T20:25:04.433Z,84.06
2022-10-15T20:30:06.661Z,84.03
2022-10-15T20:35:08.960Z,83.97
2022-10-15T20:40:10.790Z,83.73
2022-10-15T20:45:14.582Z,83.91
2022-10-15T20:50:22.535Z,84.10
2022-10-15T20:55:25.463Z,84.32
2022-10-15T21:00:27.216Z,84.69
2022-10-15T21:05:28.826Z,85.37
2022-10-15T21:10:30.481Z,85.31
2022-10-15T21:15:32.441Z,85.47
2022-10-15T21:20:34.157Z,85.32
2022-10-15T21:25:35.838Z,85.15
2022-10-15T21:30:40.770Z,85.29
2022-10-15T21:35:42.449Z,85.27
2022-10-15T21:40:45.095Z,85.35
2022-10-15T21:45:46.887Z,85.46
2022-10-15T21:50:49.082Z,85.61
2022-10-15T21:55:55.428Z,85.52
2022-10-15T22:00:57.310Z,85.63
2022-10-15T22:05:59.210Z,85.57
2022-10-15T22:11:20.491Z,85.87
2022-10-15T22:16:23.663Z,85.71
2022-10-15T22:21:30.995Z,86.24
2022-10-15T22:26:36.108Z,87.22
2022-10-15T22:31:37.820Z,87.88
2022-10-15T22:36:39.591Z,88.35
2022-10-15T22:41:44.010Z,88.66
2022-10-15T22:46:46.278Z,88.15
2022-10-15T22:51:49.569Z,87.39
2022-10-15T22:56:51.627Z,87.05
2022-10-15T23:01:53.281Z,88.42
2022-10-15T23:06:54.972Z,88.65
2022-10-15T23:11:56.602Z,88.58
2022-10-15T23:16:58.271Z,88.07
2022-10-15T23:22:02.574Z,87.52
2022-10-15T23:27:04.310Z,87.40
2022-10-15T23:32:06.177Z,88.91
2022-10-15T23:37:07.854Z,91.30
2022-10-15T23:42:09.547Z,92.57
2022-10-15T23:47:11.391Z,93.61
2022-10-15T23:52:13.064Z,94.90
2022-10-15T23:57:14.792Z,94.88
